Winona, OH (44493)

12:00 AM EST on January 26, 2015 (GMT -0500)
Guilford Lake State Park | Change Station
CLOSE
Current Station
Personal Weather Station
Location: Hanoverton, OH
Elevation: 1168 ft
Nearby Weather Stations

Elev 1168 ft 40.80 °N, 80.88 °W | Updated 47 seconds ago

Snow
Snow
21.8 °F
Feels Like 22 °F
N
1.0
Wind Variable Wind from North
Gusts 1.0 mph

Today
High -- | Low -- °F
--% Chance of Precip.
Yesterday
High -- | Low -- °F
Precip. -- in
7:39 AM 5:33 PM
Waxing Crescent, 39% visible
Pressure 29.85 in
Visibility 0.8 miles
Clouds
Windchill 22 °F
Dew Point 20 °F
Humidity 93%
Rainfall 0.01 in
Snow Depth Not available.
UV Not available.
Pollen .10 out of 12
Air Quality Not available.
Flu Activity Not available.
METAR KCAK 260451Z 03012KT 3/4SM R23/4000VP6000FT -SN VV014 M06/M09 A2980 RMK AO2 TWR VIS 1 SLP106 P0003 T10611089 400171061

More Conditions Fewer Conditions

Pressure 29.85 in
Visibility 0.8 miles
Clouds
Windchill 22 °F
Dew Point 20 °F
Humidity 93%
Rainfall 0.01 in
Snow Depth Not available.
UV Not available.
Pollen .10 out of 12
Air Quality Not available.
Flu Activity Not available.
METAR KCAK 260451Z 03012KT 3/4SM R23/4000VP6000FT -SN VV014 M06/M09 A2980 RMK AO2 TWR VIS 1 SLP106 P0003 T10611089 400171061

More Conditions Fewer Conditions

10-Day Weather Forecast

Almanac

Astronomy

Jan. 26, 2015 Rise Set
Actual Time
Civil Twilight
Nautical Twilight
Astronomical Twilight
Moon
Length of Visible Light
Length of Day
Tomorrow will be .
, % of the Moon is Illuminated

Today's Extremes

State Highs State Lows

Community

WunderPhotos

Upload Photos

1,790,150 photos uploaded!

WunderBlogs® & News

Nearby

Air Quality

  Air Quality AQ Index Pollutant
Not available.

Snow Depth

Station Depth Elevation

Earthquake Activity

City Distance Mag. Time & Date
Minimum magnitude displayed is 2.5.

Coastal Water Temperatures

Place Temperature

Nearby Weather Stations